sensor_id;sensor_type;location;lat;lon;timestamp;temperature;humidity
75615;DHT22;64199;48.578;-4.520;2024-03-02T00:00:08;20.80;48.40
75615;DHT22;64199;48.578;-4.520;2024-03-02T00:02:45;20.90;48.50
75615;DHT22;64199;48.578;-4.520;2024-03-02T00:05:13;20.90;48.50
75615;DHT22;64199;48.578;-4.520;2024-03-02T00:07:45;20.90;48.60
75615;DHT22;64199;48.578;-4.520;2024-03-02T00:10:16;20.90;48.60
75615;DHT22;64199;48.578;-4.520;2024-03-02T00:12:47;20.90;48.70
75615;DHT22;64199;48.578;-4.520;2024-03-02T00:18:04;21.00;48.90
75615;DHT22;64199;48.578;-4.520;2024-03-02T00:20:30;21.00;48.90
75615;DHT22;64199;48.578;-4.520;2024-03-02T00:23:07;21.00;49.00
75615;DHT22;64199;48.578;-4.520;2024-03-02T00:25:41;21.10;49.10
75615;DHT22;64199;48.578;-4.520;2024-03-02T00:28:18;21.10;49.10
75615;DHT22;64199;48.578;-4.520;2024-03-02T00:33:16;21.10;49.10
75615;DHT22;64199;48.578;-4.520;2024-03-02T00:35:46;21.20;49.20
75615;DHT22;64199;48.578;-4.520;2024-03-02T00:38:13;21.20;49.20
75615;DHT22;64199;48.578;-4.520;2024-03-02T00:40:44;21.20;49.10
75615;DHT22;64199;48.578;-4.520;2024-03-02T00:43:45;21.20;49.10
75615;DHT22;64199;48.578;-4.520;2024-03-02T00:46:17;21.30;49.30
75615;DHT22;64199;48.578;-4.520;2024-03-02T00:51:15;21.30;49.20
75615;DHT22;64199;48.578;-4.520;2024-03-02T00:53:41;21.30;49.10
75615;DHT22;64199;48.578;-4.520;2024-03-02T00:56:10;21.30;49.10
75615;DHT22;64199;48.578;-4.520;2024-03-02T00:58:38;21.40;49.20
75615;DHT22;64199;48.578;-4.520;2024-03-02T01:01:04;21.40;49.20
75615;DHT22;64199;48.578;-4.520;2024-03-02T01:03:31;21.40;49.20
75615;DHT22;64199;48.578;-4.520;2024-03-02T01:05:57;21.40;49.20
75615;DHT22;64199;48.578;-4.520;2024-03-02T01:08:24;21.50;49.30
75615;DHT22;64199;48.578;-4.520;2024-03-02T01:10:50;21.50;49.30
75615;DHT22;64199;48.578;-4.520;2024-03-02T01:13:15;21.50;49.30
75615;DHT22;64199;48.578;-4.520;2024-03-02T01:15:41;21.50;49.30
75615;DHT22;64199;48.578;-4.520;2024-03-02T01:18:07;21.50;49.30
75615;DHT22;64199;48.578;-4.520;2024-03-02T01:20:33;21.60;49.30
75615;DHT22;64199;48.578;-4.520;2024-03-02T01:22:59;21.60;49.20
75615;DHT22;64199;48.578;-4.520;2024-03-02T01:25:25;21.60;49.10
75615;DHT22;64199;48.578;-4.520;2024-03-02T01:27:50;21.60;49.10
75615;DHT22;64199;48.578;-4.520;2024-03-02T01:30:16;21.60;49.10
75615;DHT22;64199;48.578;-4.520;2024-03-02T01:32:42;21.70;49.10
75615;DHT22;64199;48.578;-4.520;2024-03-02T01:35:08;21.70;49.10
75615;DHT22;64199;48.578;-4.520;2024-03-02T01:37:34;21.70;49.10
75615;DHT22;64199;48.578;-4.520;2024-03-02T01:40:00;21.70;49.10
75615;DHT22;64199;48.578;-4.520;2024-03-02T01:42:26;21.80;49.00
75615;DHT22;64199;48.578;-4.520;2024-03-02T01:44:52;21.80;49.00
75615;DHT22;64199;48.578;-4.520;2024-03-02T01:47:18;21.80;49.00
75615;DHT22;64199;48.578;-4.520;2024-03-02T01:49:44;21.80;48.90
75615;DHT22;64199;48.578;-4.520;2024-03-02T01:52:10;21.80;48.90
75615;DHT22;64199;48.578;-4.520;2024-03-02T01:54:36;21.80;48.90
75615;DHT22;64199;48.578;-4.520;2024-03-02T01:57:02;21.80;48.80
75615;DHT22;64199;48.578;-4.520;2024-03-02T01:59:28;21.80;48.80
75615;DHT22;64199;48.578;-4.520;2024-03-02T02:01:54;21.80;48.80
75615;DHT22;64199;48.578;-4.520;2024-03-02T02:04:20;21.90;48.90
75615;DHT22;64199;48.578;-4.520;2024-03-02T02:06:52;21.90;48.80
75615;DHT22;64199;48.578;-4.520;2024-03-02T02:09:18;21.90;48.80
75615;DHT22;64199;48.578;-4.520;2024-03-02T02:11:44;21.90;48.70
75615;DHT22;64199;48.578;-4.520;2024-03-02T02:14:10;21.90;48.70
75615;DHT22;64199;48.578;-4.520;2024-03-02T02:16:37;22.00;48.80
75615;DHT22;64199;48.578;-4.520;2024-03-02T02:19:02;22.00;48.80
75615;DHT22;64199;48.578;-4.520;2024-03-02T02:21:28;22.00;48.80
75615;DHT22;64199;48.578;-4.520;2024-03-02T02:23:54;22.00;48.80
75615;DHT22;64199;48.578;-4.520;2024-03-02T02:26:20;22.00;48.70
75615;DHT22;64199;48.578;-4.520;2024-03-02T02:28:46;22.00;48.70
75615;DHT22;64199;48.578;-4.520;2024-03-02T02:31:14;22.00;48.70
75615;DHT22;64199;48.578;-4.520;2024-03-02T02:33:40;22.10;48.70
75615;DHT22;64199;48.578;-4.520;2024-03-02T02:36:06;22.00;48.60
75615;DHT22;64199;48.578;-4.520;2024-03-02T02:38:33;22.10;48.60
75615;DHT22;64199;48.578;-4.520;2024-03-02T02:41:00;22.10;48.60
75615;DHT22;64199;48.578;-4.520;2024-03-02T02:43:26;22.10;48.70
75615;DHT22;64199;48.578;-4.520;2024-03-02T02:45:52;22.10;49.30
75615;DHT22;64199;48.578;-4.520;2024-03-02T02:48:18;22.10;48.70
75615;DHT22;64199;48.578;-4.520;2024-03-02T02:50:44;22.10;48.60
75615;DHT22;64199;48.578;-4.520;2024-03-02T02:53:09;22.10;48.60
75615;DHT22;64199;48.578;-4.520;2024-03-02T02:55:36;22.10;48.60
75615;DHT22;64199;48.578;-4.520;2024-03-02T02:58:09;22.20;48.60
75615;DHT22;64199;48.578;-4.520;2024-03-02T03:00:35;22.20;48.60
75615;DHT22;64199;48.578;-4.520;2024-03-02T03:03:02;22.20;48.60
75615;DHT22;64199;48.578;-4.520;2024-03-02T03:05:28;22.20;48.70
75615;DHT22;64199;48.578;-4.520;2024-03-02T03:07:54;22.20;48.60
75615;DHT22;64199;48.578;-4.520;2024-03-02T03:10:20;22.20;48.60
75615;DHT22;64199;48.578;-4.520;2024-03-02T03:12:48;22.20;48.60
75615;DHT22;64199;48.578;-4.520;2024-03-02T03:15:15;22.20;48.50
75615;DHT22;64199;48.578;-4.520;2024-03-02T03:17:42;22.20;48.50
75615;DHT22;64199;48.578;-4.520;2024-03-02T03:20:08;22.30;48.60
75615;DHT22;64199;48.578;-4.520;2024-03-02T03:22:38;22.30;48.50
75615;DHT22;64199;48.578;-4.520;2024-03-02T03:25:04;22.30;48.50
75615;DHT22;64199;48.578;-4.520;2024-03-02T03:27:30;22.30;48.50
75615;DHT22;64199;48.578;-4.520;2024-03-02T03:29:56;22.20;48.40
75615;DHT22;64199;48.578;-4.520;2024-03-02T03:32:22;22.30;48.50
75615;DHT22;64199;48.578;-4.520;2024-03-02T03:34:48;22.30;48.40
75615;DHT22;64199;48.578;-4.520;2024-03-02T03:37:14;22.30;48.40
75615;DHT22;64199;48.578;-4.520;2024-03-02T03:39:41;22.30;48.40
75615;DHT22;64199;48.578;-4.520;2024-03-02T03:42:07;22.30;48.30
75615;DHT22;64199;48.578;-4.520;2024-03-02T03:44:33;22.30;48.30
75615;DHT22;64199;48.578;-4.520;2024-03-02T03:46:59;22.30;48.30
75615;DHT22;64199;48.578;-4.520;2024-03-02T03:49:26;22.30;48.20
75615;DHT22;64199;48.578;-4.520;2024-03-02T03:51:52;22.30;48.20
75615;DHT22;64199;48.578;-4.520;2024-03-02T03:54:18;22.30;48.20
75615;DHT22;64199;48.578;-4.520;2024-03-02T03:56:44;22.40;48.20
75615;DHT22;64199;48.578;-4.520;2024-03-02T03:59:11;22.30;48.20
75615;DHT22;64199;48.578;-4.520;2024-03-02T04:01:37;22.40;48.30
75615;DHT22;64199;48.578;-4.520;2024-03-02T04:04:03;22.30;48.30
75615;DHT22;64199;48.578;-4.520;2024-03-02T04:06:29;22.40;48.30
75615;DHT22;64199;48.578;-4.520;2024-03-02T04:08:55;22.40;48.40
75615;DHT22;64199;48.578;-4.520;2024-03-02T04:11:21;22.40;48.40
75615;DHT22;64199;48.578;-4.520;2024-03-02T04:13:47;22.40;48.30
75615;DHT22;64199;48.578;-4.520;2024-03-02T04:16:13;22.40;48.60
75615;DHT22;64199;48.578;-4.520;2024-03-02T04:18:39;22.40;48.20
75615;DHT22;64199;48.578;-4.520;2024-03-02T04:21:05;22.40;48.10
75615;DHT22;64199;48.578;-4.520;2024-03-02T04:23:31;22.40;48.10
75615;DHT22;64199;48.578;-4.520;2024-03-02T04:25:57;22.40;48.00
75615;DHT22;64199;48.578;-4.520;2024-03-02T04:28:22;22.40;48.00
75615;DHT22;64199;48.578;-4.520;2024-03-02T04:30:48;22.40;48.00
75615;DHT22;64199;48.578;-4.520;2024-03-02T04:33:14;22.40;48.00
75615;DHT22;64199;48.578;-4.520;2024-03-02T04:35:40;22.40;48.00
75615;DHT22;64199;48.578;-4.520;2024-03-02T04:38:06;22.40;48.00
75615;DHT22;64199;48.578;-4.520;2024-03-02T04:40:31;22.40;47.90
75615;DHT22;64199;48.578;-4.520;2024-03-02T04:42:57;22.40;48.00
75615;DHT22;64199;48.578;-4.520;2024-03-02T04:45:24;22.40;48.60
75615;DHT22;64199;48.578;-4.520;2024-03-02T04:47:53;22.40;48.00
75615;DHT22;64199;48.578;-4.520;2024-03-02T04:50:19;22.40;48.00
75615;DHT22;64199;48.578;-4.520;2024-03-02T04:52:45;22.40;48.10
75615;DHT22;64199;48.578;-4.520;2024-03-02T04:55:11;22.40;48.20
75615;DHT22;64199;48.578;-4.520;2024-03-02T04:58:00;22.40;48.30
75615;DHT22;64199;48.578;-4.520;2024-03-02T05:00:26;22.50;48.30
75615;DHT22;64199;48.578;-4.520;2024-03-02T05:02:52;22.50;48.30
75615;DHT22;64199;48.578;-4.520;2024-03-02T05:05:18;22.50;48.30
75615;DHT22;64199;48.578;-4.520;2024-03-02T05:07:44;22.50;48.20
75615;DHT22;64199;48.578;-4.520;2024-03-02T05:10:10;22.50;48.20
75615;DHT22;64199;48.578;-4.520;2024-03-02T05:12:37;22.50;48.20
75615;DHT22;64199;48.578;-4.520;2024-03-02T05:15:06;22.50;48.10
75615;DHT22;64199;48.578;-4.520;2024-03-02T05:17:33;22.50;48.00
75615;DHT22;64199;48.578;-4.520;2024-03-02T05:19:59;22.60;48.00
75615;DHT22;64199;48.578;-4.520;2024-03-02T05:22:25;22.50;47.90
75615;DHT22;64199;48.578;-4.520;2024-03-02T05:24:50;22.50;47.90
75615;DHT22;64199;48.578;-4.520;2024-03-02T05:27:16;22.50;47.90
75615;DHT22;64199;48.578;-4.520;2024-03-02T05:29:42;22.50;47.90
75615;DHT22;64199;48.578;-4.520;2024-03-02T05:32:08;22.50;47.80
75615;DHT22;64199;48.578;-4.520;2024-03-02T05:34:34;22.50;47.80
75615;DHT22;64199;48.578;-4.520;2024-03-02T05:37:01;22.50;47.90
75615;DHT22;64199;48.578;-4.520;2024-03-02T05:39:27;22.50;47.80
75615;DHT22;64199;48.578;-4.520;2024-03-02T05:41:53;22.60;47.80
75615;DHT22;64199;48.578;-4.520;2024-03-02T05:44:18;22.50;47.80
75615;DHT22;64199;48.578;-4.520;2024-03-02T05:46:45;22.50;47.80
75615;DHT22;64199;48.578;-4.520;2024-03-02T05:49:11;22.50;47.80
75615;DHT22;64199;48.578;-4.520;2024-03-02T05:51:37;22.50;47.80
75615;DHT22;64199;48.578;-4.520;2024-03-02T05:54:03;22.50;47.80
75615;DHT22;64199;48.578;-4.520;2024-03-02T05:56:29;22.50;47.80
75615;DHT22;64199;48.578;-4.520;2024-03-02T05:58:55;22.50;47.80
75615;DHT22;64199;48.578;-4.520;2024-03-02T06:01:43;22.60;47.80
75615;DHT22;64199;48.578;-4.520;2024-03-02T06:04:13;22.50;47.70
75615;DHT22;64199;48.578;-4.520;2024-03-02T06:06:40;22.50;47.70
75615;DHT22;64199;48.578;-4.520;2024-03-02T06:09:06;22.50;47.80
75615;DHT22;64199;48.578;-4.520;2024-03-02T06:11:39;22.50;47.70
75615;DHT22;64199;48.578;-4.520;2024-03-02T06:14:09;22.50;47.80
75615;DHT22;64199;48.578;-4.520;2024-03-02T06:16:35;22.50;47.80
75615;DHT22;64199;48.578;-4.520;2024-03-02T06:19:01;22.50;47.80
75615;DHT22;64199;48.578;-4.520;2024-03-02T06:21:27;22.50;47.90
75615;DHT22;64199;48.578;-4.520;2024-03-02T06:23:53;22.50;47.90
75615;DHT22;64199;48.578;-4.520;2024-03-02T06:26:19;22.50;47.90
75615;DHT22;64199;48.578;-4.520;2024-03-02T06:28:46;22.50;47.90
75615;DHT22;64199;48.578;-4.520;2024-03-02T06:31:12;22.50;47.90
75615;DHT22;64199;48.578;-4.520;2024-03-02T06:33:38;22.50;47.90
75615;DHT22;64199;48.578;-4.520;2024-03-02T06:36:04;22.50;47.90
75615;DHT22;64199;48.578;-4.520;2024-03-02T06:38:30;22.50;48.00
75615;DHT22;64199;48.578;-4.520;2024-03-02T06:40:59;22.50;48.00
75615;DHT22;64199;48.578;-4.520;2024-03-02T06:43:25;22.50;48.00
75615;DHT22;64199;48.578;-4.520;2024-03-02T06:45:51;22.50;48.10
75615;DHT22;64199;48.578;-4.520;2024-03-02T06:48:17;22.50;48.10
75615;DHT22;64199;48.578;-4.520;2024-03-02T06:50:49;22.60;48.10
75615;DHT22;64199;48.578;-4.520;2024-03-02T06:53:16;22.50;48.00
75615;DHT22;64199;48.578;-4.520;2024-03-02T06:55:45;22.50;48.00
75615;DHT22;64199;48.578;-4.520;2024-03-02T06:58:15;22.50;48.00
75615;DHT22;64199;48.578;-4.520;2024-03-02T07:00:43;22.50;48.00
75615;DHT22;64199;48.578;-4.520;2024-03-02T07:03:09;22.50;48.00
75615;DHT22;64199;48.578;-4.520;2024-03-02T07:05:35;22.50;48.10
75615;DHT22;64199;48.578;-4.520;2024-03-02T07:08:01;22.50;48.20
75615;DHT22;64199;48.578;-4.520;2024-03-02T07:10:28;22.50;48.20
75615;DHT22;64199;48.578;-4.520;2024-03-02T07:12:54;22.50;48.20
75615;DHT22;64199;48.578;-4.520;2024-03-02T07:15:20;22.60;48.20
75615;DHT22;64199;48.578;-4.520;2024-03-02T07:18:04;22.50;48.80
75615;DHT22;64199;48.578;-4.520;2024-03-02T07:20:30;22.50;48.10
75615;DHT22;64199;48.578;-4.520;2024-03-02T07:22:56;22.60;48.20
75615;DHT22;64199;48.578;-4.520;2024-03-02T07:25:22;22.50;48.30
75615;DHT22;64199;48.578;-4.520;2024-03-02T07:27:47;22.60;48.50
75615;DHT22;64199;48.578;-4.520;2024-03-02T07:30:14;22.60;48.70
75615;DHT22;64199;48.578;-4.520;2024-03-02T07:32:41;22.60;48.90
75615;DHT22;64199;48.578;-4.520;2024-03-02T07:35:14;22.60;48.90
75615;DHT22;64199;48.578;-4.520;2024-03-02T07:37:41;22.60;49.00
75615;DHT22;64199;48.578;-4.520;2024-03-02T07:40:08;22.60;48.90
75615;DHT22;64199;48.578;-4.520;2024-03-02T07:42:40;22.60;48.70
75615;DHT22;64199;48.578;-4.520;2024-03-02T07:45:07;22.60;48.60
75615;DHT22;64199;48.578;-4.520;2024-03-02T07:47:34;22.60;48.60
75615;DHT22;64199;48.578;-4.520;2024-03-02T07:50:00;22.60;48.60
75615;DHT22;64199;48.578;-4.520;2024-03-02T07:52:26;22.60;48.50
75615;DHT22;64199;48.578;-4.520;2024-03-02T07:54:52;22.60;48.50
75615;DHT22;64199;48.578;-4.520;2024-03-02T07:57:17;22.60;48.50
75615;DHT22;64199;48.578;-4.520;2024-03-02T07:59:43;22.60;48.40
75615;DHT22;64199;48.578;-4.520;2024-03-02T08:02:09;22.60;48.40
75615;DHT22;64199;48.578;-4.520;2024-03-02T08:04:35;22.60;48.40
75615;DHT22;64199;48.578;-4.520;2024-03-02T08:07:02;22.60;48.30
75615;DHT22;64199;48.578;-4.520;2024-03-02T08:09:28;22.60;48.30
75615;DHT22;64199;48.578;-4.520;2024-03-02T08:11:54;22.70;48.30
75615;DHT22;64199;48.578;-4.520;2024-03-02T08:14:20;22.70;48.30
75615;DHT22;64199;48.578;-4.520;2024-03-02T08:16:46;22.70;48.20
75615;DHT22;64199;48.578;-4.520;2024-03-02T08:19:12;22.70;48.20
75615;DHT22;64199;48.578;-4.520;2024-03-02T08:21:38;22.70;48.20
75615;DHT22;64199;48.578;-4.520;2024-03-02T08:24:04;22.70;48.70
75615;DHT22;64199;48.578;-4.520;2024-03-02T08:26:31;22.70;48.10
75615;DHT22;64199;48.578;-4.520;2024-03-02T08:28:58;22.70;48.00
75615;DHT22;64199;48.578;-4.520;2024-03-02T08:31:24;22.70;48.00
75615;DHT22;64199;48.578;-4.520;2024-03-02T08:33:50;22.70;48.00
75615;DHT22;64199;48.578;-4.520;2024-03-02T08:36:16;22.70;48.00
75615;DHT22;64199;48.578;-4.520;2024-03-02T08:38:42;22.70;48.00
75615;DHT22;64199;48.578;-4.520;2024-03-02T08:41:09;22.70;47.90
75615;DHT22;64199;48.578;-4.520;2024-03-02T08:43:35;22.80;48.00
75615;DHT22;64199;48.578;-4.520;2024-03-02T08:46:01;22.70;48.00
75615;DHT22;64199;48.578;-4.520;2024-03-02T08:48:27;22.80;47.90
75615;DHT22;64199;48.578;-4.520;2024-03-02T08:50:53;22.80;47.90
75615;DHT22;64199;48.578;-4.520;2024-03-02T08:53:19;22.80;47.90
75615;DHT22;64199;48.578;-4.520;2024-03-02T08:55:47;22.80;47.90
75615;DHT22;64199;48.578;-4.520;2024-03-02T08:58:14;22.80;47.90
75615;DHT22;64199;48.578;-4.520;2024-03-02T09:00:40;22.80;47.80
75615;DHT22;64199;48.578;-4.520;2024-03-02T09:03:07;22.80;47.80
75615;DHT22;64199;48.578;-4.520;2024-03-02T09:05:33;22.80;47.80
75615;DHT22;64199;48.578;-4.520;2024-03-02T09:07:58;22.80;47.80
75615;DHT22;64199;48.578;-4.520;2024-03-02T09:10:24;22.80;47.70
75615;DHT22;64199;48.578;-4.520;2024-03-02T09:12:50;22.80;47.70
75615;DHT22;64199;48.578;-4.520;2024-03-02T09:15:17;22.90;47.70
75615;DHT22;64199;48.578;-4.520;2024-03-02T09:17:43;22.90;47.70
75615;DHT22;64199;48.578;-4.520;2024-03-02T09:20:10;22.90;47.70
75615;DHT22;64199;48.578;-4.520;2024-03-02T09:22:36;22.90;47.70
75615;DHT22;64199;48.578;-4.520;2024-03-02T09:25:02;22.90;47.70
75615;DHT22;64199;48.578;-4.520;2024-03-02T09:27:28;22.90;47.70
75615;DHT22;64199;48.578;-4.520;2024-03-02T09:29:54;22.90;47.70
75615;DHT22;64199;48.578;-4.520;2024-03-02T09:32:19;22.90;47.70
75615;DHT22;64199;48.578;-4.520;2024-03-02T09:34:45;22.90;47.60
75615;DHT22;64199;48.578;-4.520;2024-03-02T09:37:13;22.90;47.60
75615;DHT22;64199;48.578;-4.520;2024-03-02T09:39:39;22.90;47.60
75615;DHT22;64199;48.578;-4.520;2024-03-02T09:42:06;23.00;47.60
75615;DHT22;64199;48.578;-4.520;2024-03-02T09:44:32;23.00;47.60
75615;DHT22;64199;48.578;-4.520;2024-03-02T09:46:58;23.00;47.60
75615;DHT22;64199;48.578;-4.520;2024-03-02T09:49:24;23.00;47.60
75615;DHT22;64199;48.578;-4.520;2024-03-02T09:51:50;23.00;47.50
75615;DHT22;64199;48.578;-4.520;2024-03-02T09:54:16;23.00;47.50
75615;DHT22;64199;48.578;-4.520;2024-03-02T09:56:44;23.00;47.50
75615;DHT22;64199;48.578;-4.520;2024-03-02T09:59:10;23.00;47.40
75615;DHT22;64199;48.578;-4.520;2024-03-02T10:01:36;23.00;47.40
75615;DHT22;64199;48.578;-4.520;2024-03-02T10:04:02;23.00;47.40
75615;DHT22;64199;48.578;-4.520;2024-03-02T10:06:28;23.00;47.30
75615;DHT22;64199;48.578;-4.520;2024-03-02T10:08:55;23.00;47.20
75615;DHT22;64199;48.578;-4.520;2024-03-02T10:11:32;23.00;47.20
75615;DHT22;64199;48.578;-4.520;2024-03-02T10:14:12;23.00;47.20
75615;DHT22;64199;48.578;-4.520;2024-03-02T10:16:40;22.90;47.10
75615;DHT22;64199;48.578;-4.520;2024-03-02T10:21:42;22.80;47.20
75615;DHT22;64199;48.578;-4.520;2024-03-02T10:24:08;22.80;47.20
75615;DHT22;64199;48.578;-4.520;2024-03-02T10:26:34;22.80;47.20
75615;DHT22;64199;48.578;-4.520;2024-03-02T10:29:00;22.70;47.10
75615;DHT22;64199;48.578;-4.520;2024-03-02T10:31:26;22.70;47.10
75615;DHT22;64199;48.578;-4.520;2024-03-02T10:33:58;22.70;47.10
75615;DHT22;64199;48.578;-4.520;2024-03-02T10:36:23;22.70;47.10
75615;DHT22;64199;48.578;-4.520;2024-03-02T10:38:51;22.60;47.00
75615;DHT22;64199;48.578;-4.520;2024-03-02T10:41:23;22.60;47.00
75615;DHT22;64199;48.578;-4.520;2024-03-02T10:43:52;22.50;46.90
75615;DHT22;64199;48.578;-4.520;2024-03-02T10:46:21;22.50;46.90
75615;DHT22;64199;48.578;-4.520;2024-03-02T10:48:48;22.50;46.90
75615;DHT22;64199;48.578;-4.520;2024-03-02T10:51:15;22.40;46.90
75615;DHT22;64199;48.578;-4.520;2024-03-02T10:53:41;22.40;46.90
75615;DHT22;64199;48.578;-4.520;2024-03-02T10:56:08;22.40;47.00
75615;DHT22;64199;48.578;-4.520;2024-03-02T10:58:35;22.30;46.90
75615;DHT22;64199;48.578;-4.520;2024-03-02T11:01:03;22.30;46.90
75615;DHT22;64199;48.578;-4.520;2024-03-02T11:03:35;22.30;46.90
75615;DHT22;64199;48.578;-4.520;2024-03-02T11:06:04;22.20;46.90
75615;DHT22;64199;48.578;-4.520;2024-03-02T11:08:34;22.20;46.90
75615;DHT22;64199;48.578;-4.520;2024-03-02T11:11:07;22.10;46.90
75615;DHT22;64199;48.578;-4.520;2024-03-02T11:13:36;22.10;47.00
75615;DHT22;64199;48.578;-4.520;2024-03-02T11:16:09;22.00;46.90
75615;DHT22;64199;48.578;-4.520;2024-03-02T11:18:39;22.00;46.90
75615;DHT22;64199;48.578;-4.520;2024-03-02T11:21:06;22.00;46.90
75615;DHT22;64199;48.578;-4.520;2024-03-02T11:23:33;22.00;47.00
75615;DHT22;64199;48.578;-4.520;2024-03-02T11:26:21;22.00;47.00
75615;DHT22;64199;48.578;-4.520;2024-03-02T11:28:49;21.90;47.00
75615;DHT22;64199;48.578;-4.520;2024-03-02T11:31:15;21.90;47.10
75615;DHT22;64199;48.578;-4.520;2024-03-02T11:33:41;21.90;47.10
75615;DHT22;64199;48.578;-4.520;2024-03-02T11:36:07;21.80;47.10
75615;DHT22;64199;48.578;-4.520;2024-03-02T11:38:34;21.80;47.20
75615;DHT22;64199;48.578;-4.520;2024-03-02T11:41:07;21.80;47.30
75615;DHT22;64199;48.578;-4.520;2024-03-02T11:43:37;21.80;47.40
75615;DHT22;64199;48.578;-4.520;2024-03-02T11:46:05;21.70;47.40
75615;DHT22;64199;48.578;-4.520;2024-03-02T11:48:36;21.70;47.40
75615;DHT22;64199;48.578;-4.520;2024-03-02T11:51:03;21.70;47.50
75615;DHT22;64199;48.578;-4.520;2024-03-02T11:53:30;21.60;47.50
75615;DHT22;64199;48.578;-4.520;2024-03-02T11:55:57;21.60;47.50
75615;DHT22;64199;48.578;-4.520;2024-03-02T11:58:23;21.60;47.60
75615;DHT22;64199;48.578;-4.520;2024-03-02T12:00:56;21.60;48.10
75615;DHT22;64199;48.578;-4.520;2024-03-02T12:03:23;21.50;47.70
75615;DHT22;64199;48.578;-4.520;2024-03-02T12:05:52;21.50;47.90
75615;DHT22;64199;48.578;-4.520;2024-03-02T12:08:19;21.50;48.00
75615;DHT22;64199;48.578;-4.520;2024-03-02T12:11:01;21.40;48.10
75615;DHT22;64199;48.578;-4.520;2024-03-02T12:13:27;21.40;48.20
75615;DHT22;64199;48.578;-4.520;2024-03-02T12:15:55;21.40;48.20
75615;DHT22;64199;48.578;-4.520;2024-03-02T12:18:25;21.40;48.30
75615;DHT22;64199;48.578;-4.520;2024-03-02T12:20:52;21.30;48.30
75615;DHT22;64199;48.578;-4.520;2024-03-02T12:23:18;21.30;48.30
75615;DHT22;64199;48.578;-4.520;2024-03-02T12:25:45;21.20;48.10
75615;DHT22;64199;48.578;-4.520;2024-03-02T12:28:11;21.20;48.10
75615;DHT22;64199;48.578;-4.520;2024-03-02T12:30:37;21.20;48.70
75615;DHT22;64199;48.578;-4.520;2024-03-02T12:33:03;21.20;48.10
75615;DHT22;64199;48.578;-4.520;2024-03-02T12:35:30;21.20;48.10
75615;DHT22;64199;48.578;-4.520;2024-03-02T12:37:56;21.20;48.20
75615;DHT22;64199;48.578;-4.520;2024-03-02T12:40:22;21.20;48.20
75615;DHT22;64199;48.578;-4.520;2024-03-02T12:42:49;21.20;48.30
75615;DHT22;64199;48.578;-4.520;2024-03-02T12:45:16;21.30;48.40
75615;DHT22;64199;48.578;-4.520;2024-03-02T12:47:49;21.30;48.70
75615;DHT22;64199;48.578;-4.520;2024-03-02T12:50:16;21.30;48.50
75615;DHT22;64199;48.578;-4.520;2024-03-02T12:52:42;21.30;48.50
75615;DHT22;64199;48.578;-4.520;2024-03-02T12:55:09;21.30;48.60
75615;DHT22;64199;48.578;-4.520;2024-03-02T12:57:35;21.40;48.60
75615;DHT22;64199;48.578;-4.520;2024-03-02T13:00:09;21.40;48.70
75615;DHT22;64199;48.578;-4.520;2024-03-02T13:02:40;21.50;48.80
75615;DHT22;64199;48.578;-4.520;2024-03-02T13:05:07;21.50;48.80
75615;DHT22;64199;48.578;-4.520;2024-03-02T13:07:39;21.50;48.90
75615;DHT22;64199;48.578;-4.520;2024-03-02T13:10:06;21.50;49.00
75615;DHT22;64199;48.578;-4.520;2024-03-02T13:12:36;21.60;49.00
75615;DHT22;64199;48.578;-4.520;2024-03-02T13:15:03;21.60;49.00
75615;DHT22;64199;48.578;-4.520;2024-03-02T13:17:29;21.60;49.00
75615;DHT22;64199;48.578;-4.520;2024-03-02T13:19:57;21.70;49.00
75615;DHT22;64199;48.578;-4.520;2024-03-02T13:22:23;21.70;48.90
75615;DHT22;64199;48.578;-4.520;2024-03-02T13:24:53;21.70;48.80
75615;DHT22;64199;48.578;-4.520;2024-03-02T13:27:20;21.70;48.80
75615;DHT22;64199;48.578;-4.520;2024-03-02T13:29:46;21.70;48.70
75615;DHT22;64199;48.578;-4.520;2024-03-02T13:32:16;21.80;48.70
75615;DHT22;64199;48.578;-4.520;2024-03-02T13:34:42;21.80;48.60
75615;DHT22;64199;48.578;-4.520;2024-03-02T13:37:09;21.80;48.60
75615;DHT22;64199;48.578;-4.520;2024-03-02T13:39:35;21.80;48.60
75615;DHT22;64199;48.578;-4.520;2024-03-02T13:42:10;21.90;48.50
75615;DHT22;64199;48.578;-4.520;2024-03-02T13:44:36;21.90;48.40
75615;DHT22;64199;48.578;-4.520;2024-03-02T13:47:03;21.90;48.40
75615;DHT22;64199;48.578;-4.520;2024-03-02T13:49:29;21.90;48.30
75615;DHT22;64199;48.578;-4.520;2024-03-02T13:52:06;22.00;48.40
75615;DHT22;64199;48.578;-4.520;2024-03-02T13:54:46;22.00;48.30
75615;DHT22;64199;48.578;-4.520;2024-03-02T13:57:12;22.00;48.20
75615;DHT22;64199;48.578;-4.520;2024-03-02T13:59:39;22.00;48.30
75615;DHT22;64199;48.578;-4.520;2024-03-02T14:02:06;22.00;48.20
75615;DHT22;64199;48.578;-4.520;2024-03-02T14:04:34;22.00;48.10
75615;DHT22;64199;48.578;-4.520;2024-03-02T14:07:00;22.00;48.10
75615;DHT22;64199;48.578;-4.520;2024-03-02T14:09:26;22.00;48.10
75615;DHT22;64199;48.578;-4.520;2024-03-02T14:11:53;22.10;48.00
75615;DHT22;64199;48.578;-4.520;2024-03-02T14:14:19;22.10;48.00
75615;DHT22;64199;48.578;-4.520;2024-03-02T14:16:45;22.10;48.00
75615;DHT22;64199;48.578;-4.520;2024-03-02T14:19:11;22.20;48.00
75615;DHT22;64199;48.578;-4.520;2024-03-02T14:21:38;22.20;47.90
75615;DHT22;64199;48.578;-4.520;2024-03-02T14:24:04;22.20;47.90
75615;DHT22;64199;48.578;-4.520;2024-03-02T14:26:30;22.20;47.80
75615;DHT22;64199;48.578;-4.520;2024-03-02T14:28:56;22.20;47.70
75615;DHT22;64199;48.578;-4.520;2024-03-02T14:31:21;22.30;47.80
75615;DHT22;64199;48.578;-4.520;2024-03-02T14:33:47;22.30;47.70
75615;DHT22;64199;48.578;-4.520;2024-03-02T14:36:13;22.30;47.70
75615;DHT22;64199;48.578;-4.520;2024-03-02T14:38:39;22.30;47.70
75615;DHT22;64199;48.578;-4.520;2024-03-02T14:41:05;22.30;47.70
75615;DHT22;64199;48.578;-4.520;2024-03-02T14:43:31;22.40;47.70
75615;DHT22;64199;48.578;-4.520;2024-03-02T14:45:57;22.40;47.70
75615;DHT22;64199;48.578;-4.520;2024-03-02T14:48:24;22.30;47.60
75615;DHT22;64199;48.578;-4.520;2024-03-02T14:50:51;22.40;47.50
75615;DHT22;64199;48.578;-4.520;2024-03-02T14:53:17;22.40;47.50
75615;DHT22;64199;48.578;-4.520;2024-03-02T14:55:43;22.40;47.50
75615;DHT22;64199;48.578;-4.520;2024-03-02T14:58:09;22.40;47.50
75615;DHT22;64199;48.578;-4.520;2024-03-02T15:00:35;22.40;47.40
75615;DHT22;64199;48.578;-4.520;2024-03-02T15:03:01;22.50;47.40
75615;DHT22;64199;48.578;-4.520;2024-03-02T15:05:27;22.50;47.40
75615;DHT22;64199;48.578;-4.520;2024-03-02T15:07:53;22.50;47.30
75615;DHT22;64199;48.578;-4.520;2024-03-02T15:10:18;22.50;47.30
75615;DHT22;64199;48.578;-4.520;2024-03-02T15:12:44;22.60;47.30
75615;DHT22;64199;48.578;-4.520;2024-03-02T15:15:10;22.60;47.20
75615;DHT22;64199;48.578;-4.520;2024-03-02T15:17:37;22.60;47.20
75615;DHT22;64199;48.578;-4.520;2024-03-02T15:20:03;22.60;47.20
75615;DHT22;64199;48.578;-4.520;2024-03-02T15:22:33;22.60;47.20
75615;DHT22;64199;48.578;-4.520;2024-03-02T15:24:58;22.70;47.20